Vernicos Master — SVA2352 — position and weather

sailwx.info

Track history (hours):
 
Tides and Currents Weather Stations Pressure Air Temp Water Temp Dewpoint Dewpoint Depression Visibility Wind Speed Wind Dir Waves Ship Positions

Vernicos Master

Last reported at 2016-Jun-27 04:33 UTC. Time now 2016-Jun-27 05:58 UTC.
Position N 40°38' E 022°56'.

Length 28 m; draft 3.8 m.

Type: Tug. MMSI: 240917000.

Date/timePositionNaut miles runAvg speedWind from/ knotsBaromVisibWave heightAir tempDewpointWater temp
2016-Jun-27 04:33N 40°38' E 022°56'0 0.0
2016-Jun-27 03:33N 40°38' E 022°56'2 0.0
2016-Jun-25 14:23N 40°38' E 022°54'0 0.1
2016-Jun-25 13:34N 40°38' E 022°54'0 0.1
2016-Jun-25 12:34N 40°38' E 022°53'0 0.2
2016-Jun-25 11:34N 40°38' E 022°53'1 0.7
2016-Jun-25 10:33N 40°38' E 022°54'0 0.3
2016-Jun-25 09:33N 40°38' E 022°54'0 0.5
2016-Jun-25 08:33N 40°38' E 022°55'1 0.9
2016-Jun-25 07:33N 40°38' E 022°56'1 0.7
2016-Jun-25 06:33N 40°38' E 022°55'1 0.7
2016-Jun-25 05:33N 40°38' E 022°56'0 0.0
2016-Jun-25 04:33N 40°38' E 022°56'1 1.1
2016-Jun-25 03:33N 40°37' E 022°55'1 1.1
2016-Jun-25 02:33N 40°38' E 022°56'0 0.0
2016-Jun-24 18:12N 40°38' E 022°56'1 1.0
2016-Jun-24 17:33N 40°38' E 022°55'1 1.5
2016-Jun-24 16:33N 40°37' E 022°56'1 1.5
2016-Jun-24 15:33N 40°38' E 022°56'2 2.0
2016-Jun-24 14:33N 40°38' E 022°53'0 0.0
2016-Jun-24 13:33N 40°38' E 022°53'0 0.0
2016-Jun-24 12:33N 40°38' E 022°53'0 0.0
2016-Jun-24 11:33N 40°38' E 022°53'0 0.0
2016-Jun-24 10:33N 40°38' E 022°53'0 0.0
2016-Jun-24 09:33N 40°38' E 022°53'0 0.0
2016-Jun-24 08:33N 40°38' E 022°53'0 0.0
2016-Jun-24 07:33N 40°38' E 022°53'0 0.1
2016-Jun-24 04:33N 40°38' E 022°54'1 1.2
2016-Jun-24 03:33N 40°38' E 022°55'1 0.0
2016-Jun-23 08:33N 40°38' E 022°56'2 2.0
2016-Jun-23 07:33N 40°38' E 022°53'0 0.1
2016-Jun-23 05:33N 40°38' E 022°53'0 0.0
2016-Jun-23 04:33N 40°38' E 022°53'0 0.0
2016-Jun-23 03:33N 40°38' E 022°53'0 0.0
2016-Jun-23 02:33N 40°38' E 022°53'0 0.0
2016-Jun-23 01:33N 40°38' E 022°53'0 0.0
2016-Jun-23 00:33N 40°38' E 022°53'0 0.0
2016-Jun-22 23:33N 40°38' E 022°53'0 0.0
2016-Jun-22 22:34N 40°38' E 022°53'0 0.0
2016-Jun-22 21:33N 40°38' E 022°53'0 0.0
2016-Jun-22 20:33N 40°38' E 022°53'0 0.0
2016-Jun-22 19:33N 40°38' E 022°53'2 2.0
2016-Jun-22 18:33N 40°38' E 022°56'0 0.0
2016-Jun-21 10:16N 40°38' E 022°56'0 0.0
2016-Jun-21 09:33N 40°38' E 022°56'0 0.0
2016-Jun-21 08:33N 40°38' E 022°56'0 0.0
2016-Jun-21 07:33N 40°38' E 022°56'0 0.0
2016-Jun-21 06:33N 40°38' E 022°56'0 0.0
2016-Jun-21 04:33N 40°38' E 022°56'0 0.0
2016-Jun-21 03:33N 40°38' E 022°56'0 0.0
2016-Jun-21 02:32N 40°38' E 022°56'0 0.0
2016-Jun-19 05:33N 40°38' E 022°56'2 1.8
2016-Jun-19 04:33N 40°38' E 022°54'0 0.2
2016-Jun-19 03:33N 40°38' E 022°53'2 1.8
2016-Jun-19 02:32N 40°38' E 022°56'0 0.0
2016-Jun-17 12:33N 40°38' E 022°56'2 1.1
2016-Jun-17 11:05N 40°38' E 022°54'0 0.1
2016-Jun-17 10:33N 40°38' E 022°53'0 0.0
2016-Jun-17 09:34N 40°38' E 022°53'0 0.0
2016-Jun-17 08:33N 40°38' E 022°53'0 0.0
2016-Jun-17 07:34N 40°38' E 022°53'0 0.0
2016-Jun-17 06:34N 40°38' E 022°53'0 0.3
2016-Jun-17 05:34N 40°38' E 022°53'0 0.3
2016-Jun-17 04:34N 40°37' E 022°54'  
Track history (hours):
 
Tides and Currents Weather Stations Pressure Air Temp Water Temp Dewpoint Dewpoint Depression Visibility Wind Speed Wind Dir Waves Ship Positions

Vernicos Master

Last reported at 2016-Jun-27 04:33 UTC. Time now 2016-Jun-27 05:58 UTC.
Position N 40°38' E 022°56'.

Length 28 m; draft 3.8 m.

Type: Tug. MMSI: 240917000.

Date/timePositionNaut miles runAvg speedWind from/ knotsBaromVisibWave heightAir tempDewpointWater temp
2016-Jun-27 04:33N 40°38' E 022°56'0 0.0
2016-Jun-27 03:33N 40°38' E 022°56'2 0.0
2016-Jun-25 14:23N 40°38' E 022°54'0 0.1
2016-Jun-25 13:34N 40°38' E 022°54'0 0.1
2016-Jun-25 12:34N 40°38' E 022°53'0 0.2
2016-Jun-25 11:34N 40°38' E 022°53'1 0.7
2016-Jun-25 10:33N 40°38' E 022°54'0 0.3
2016-Jun-25 09:33N 40°38' E 022°54'0 0.5
2016-Jun-25 08:33N 40°38' E 022°55'1 0.9
2016-Jun-25 07:33N 40°38' E 022°56'1 0.7
2016-Jun-25 06:33N 40°38' E 022°55'1 0.7
2016-Jun-25 05:33N 40°38' E 022°56'0 0.0
2016-Jun-25 04:33N 40°38' E 022°56'1 1.1
2016-Jun-25 03:33N 40°37' E 022°55'1 1.1
2016-Jun-25 02:33N 40°38' E 022°56'0 0.0
2016-Jun-24 18:12N 40°38' E 022°56'1 1.0
2016-Jun-24 17:33N 40°38' E 022°55'1 1.5
2016-Jun-24 16:33N 40°37' E 022°56'1 1.5
2016-Jun-24 15:33N 40°38' E 022°56'2 2.0
2016-Jun-24 14:33N 40°38' E 022°53'0 0.0
2016-Jun-24 13:33N 40°38' E 022°53'0 0.0
2016-Jun-24 12:33N 40°38' E 022°53'0 0.0
2016-Jun-24 11:33N 40°38' E 022°53'0 0.0
2016-Jun-24 10:33N 40°38' E 022°53'0 0.0
2016-Jun-24 09:33N 40°38' E 022°53'0 0.0
2016-Jun-24 08:33N 40°38' E 022°53'0 0.0
2016-Jun-24 07:33N 40°38' E 022°53'0 0.1
2016-Jun-24 04:33N 40°38' E 022°54'1 1.2
2016-Jun-24 03:33N 40°38' E 022°55'1 0.0
2016-Jun-23 08:33N 40°38' E 022°56'2 2.0
2016-Jun-23 07:33N 40°38' E 022°53'0 0.1
2016-Jun-23 05:33N 40°38' E 022°53'0 0.0
2016-Jun-23 04:33N 40°38' E 022°53'0 0.0
2016-Jun-23 03:33N 40°38' E 022°53'0 0.0
2016-Jun-23 02:33N 40°38' E 022°53'0 0.0
2016-Jun-23 01:33N 40°38' E 022°53'0 0.0
2016-Jun-23 00:33N 40°38' E 022°53'0 0.0
2016-Jun-22 23:33N 40°38' E 022°53'0 0.0
2016-Jun-22 22:34N 40°38' E 022°53'0 0.0
2016-Jun-22 21:33N 40°38' E 022°53'0 0.0
2016-Jun-22 20:33N 40°38' E 022°53'0 0.0
2016-Jun-22 19:33N 40°38' E 022°53'2 2.0
2016-Jun-22 18:33N 40°38' E 022°56'0 0.0
2016-Jun-21 10:16N 40°38' E 022°56'0 0.0
2016-Jun-21 09:33N 40°38' E 022°56'0 0.0
2016-Jun-21 08:33N 40°38' E 022°56'0 0.0
2016-Jun-21 07:33N 40°38' E 022°56'0 0.0
2016-Jun-21 06:33N 40°38' E 022°56'0 0.0
2016-Jun-21 04:33N 40°38' E 022°56'0 0.0
2016-Jun-21 03:33N 40°38' E 022°56'0 0.0
2016-Jun-21 02:32N 40°38' E 022°56'0 0.0
2016-Jun-19 05:33N 40°38' E 022°56'2 1.8
2016-Jun-19 04:33N 40°38' E 022°54'0 0.2
2016-Jun-19 03:33N 40°38' E 022°53'2 1.8
2016-Jun-19 02:32N 40°38' E 022°56'0 0.0
2016-Jun-17 12:33N 40°38' E 022°56'2 1.1
2016-Jun-17 11:05N 40°38' E 022°54'0 0.1
2016-Jun-17 10:33N 40°38' E 022°53'0 0.0
2016-Jun-17 09:34N 40°38' E 022°53'0 0.0
2016-Jun-17 08:33N 40°38' E 022°53'0 0.0
2016-Jun-17 07:34N 40°38' E 022°53'0 0.0
2016-Jun-17 06:34N 40°38' E 022°53'0 0.3
2016-Jun-17 05:34N 40°38' E 022°53'0 0.3
2016-Jun-17 04:34N 40°37' E 022°54'  

Dump ship's entire track history